Valley Peak, Santa Cruz Island Reserve, California Weather observations

Data are for 10 minute period ending at time listed.
 Day   Time   Solar   Ave.   Ave.  Ave.  Vector  Max.   Baro.   Total    
  of    of     Rad.   Air    Rel.  Wind   Wind   Wind  Press.  Precip.   
Year   Day            Temp.  Hum.  Speed  Dir.   Gust                    
2017   (PST)  Kw/m2    F      %     mph   deg.    mph    mb.     in.     
-------------------------------------------------------------------------
 293    9:50   0.60   60.9    75   14.7   277    21.7   964.3    0.00 
 293   10:00   0.62   62.4    70   15.4   286    22.1   964.4    0.00 
 293   10:10   0.63   64.0    67   12.5   285    23.3   964.4    0.00 
 293   10:20   0.65   63.6    66   15.8   282    26.8   964.1    0.00 
 293   10:30   0.69   64.2    60   16.2   295    26.0   963.9    0.00 
 293   10:40   0.66   65.4    57   13.4   299    24.0   964.0    0.00 
 293   10:50   0.61   64.5    58   16.7   294    27.4   963.8    0.00 
 293   11:00   0.64   64.9    58   13.9   293    21.9   963.8    0.00 
 293   11:10   0.70   65.6    58   13.9   304    25.0   964.0    0.00 
 293   11:20   0.67   65.0    58   16.0   306    30.9   963.9    0.00 
 293   11:30   0.71   64.3    58   17.6   316    28.0   963.8    0.00 
 293   11:40   0.71   64.2    58   17.6   308    28.8   963.9    0.00 
 293   11:50   0.72   65.3    56   14.1   303    21.7   963.8    0.00 
 293   12:00   0.67   64.9    57   16.5   299    30.1   963.7    0.00 
 293   12:10   0.70   65.0    57   17.4   307    30.2   963.6    0.00 
 293   12:20   0.71   64.6    58   16.4   309    29.1   963.5    0.00 
 293   12:30   0.70   65.5    55   14.4   318    27.1   963.5    0.00 
 293   12:40   0.69   64.9    55   16.2   320    27.0   963.5    0.00 
 293   12:50   0.68   64.8    54   20.0   315    33.6   963.4    0.00 
 293   13:00   0.67   64.4    55   22.9   315    33.9   963.2    0.00 
 293   13:10   0.65   64.9    54   18.4   309    30.7   963.2    0.00 
 293   13:20   0.64   65.3    52   15.4   319    24.9   963.1    0.00 
 293   13:30   0.62   65.2    52   16.3   318    28.0   962.9    0.00 
 293   13:40   0.60   65.2    50   17.1   322    27.9   962.8    0.00 
 293   13:50   0.58   65.2    50   13.6   323    25.9   962.6    0.00 
 293   14:00   0.56   65.8    49   12.7   315    22.9   962.8    0.00 
 293   14:10   0.54   65.1    50   16.4   316    24.9   962.8    0.00 
 293   14:20   0.51   64.9    50   15.3   308    24.0   962.9    0.00 
 293   14:30   0.49   64.9    49   16.6   305    26.8   962.8    0.00 
 293   14:40   0.46   65.2    48   15.0   299    24.2   962.9    0.00 
 293   14:50   0.43   64.2    50   18.7   310    33.2   962.9    0.00 
 293   15:00   0.40   63.3    51   21.3   315    30.5   962.9    0.00 
 293   15:10   0.37   63.2    51   18.2   313    28.0   962.8    0.00 
 293   15:20   0.34   63.6    50   19.3   310    30.5   962.9    0.00 
 293   15:30   0.31   63.5    49   18.7   312    35.4   962.9    0.00 
 293   15:40   0.28   62.6    50   20.9   310    35.8   962.8    0.00 
 293   15:50   0.25   62.1    50   21.8   314    34.1   962.7    0.00 
 293   16:00   0.22   62.1    50   21.3   312    31.8   962.7    0.00 
 293   16:10   0.19   61.1    52   23.3   315    40.2   962.7    0.00 
 293   16:20   0.15   60.2    54   24.2   312    38.4   962.6    0.00 
 293   16:30   0.12   59.8    54   22.0   315    35.4   962.6    0.00 
 293   16:40   0.09   59.6    53   26.9   316    39.3   962.6    0.00 
 293   16:50   0.07   59.4    52   27.0   318    40.0   962.7    0.00 
 293   17:00   0.04   59.2    51   28.3   320    42.4   962.7    0.00 
 293   17:10   0.02   59.0    51   26.7   320    43.8   962.7    0.00 
 293   17:20   0.00   59.0    50   29.1   319    42.4   962.7    0.00 
 293   17:30   0.00   58.9    49   26.6   326    44.4   962.8    0.00 
 293   17:40   0.00   58.5    50   25.1   332    39.3   963.1    0.00 
 293   17:50   0.00   57.7    52   28.0   328    42.7   963.2    0.00 
 293   18:00   0.00   57.3    54   30.0   325    45.5   963.2    0.00 
 293   18:10   0.00   56.8    56   29.7   325    43.5   963.3    0.00 
 293   18:20   0.00   56.8    55   30.0   331    43.8   963.4    0.00 
 293   18:30   0.00   56.5    57   31.0   327    45.8   963.5    0.00 
 293   18:40   0.00   56.3    58   30.1   322    49.8   963.7    0.00 
 293   18:50   0.00   56.0    61   27.2   320    44.0   963.7    0.00 
 293   19:00   0.00   56.1    59   30.5   318    46.8   963.8    0.00 
 293   19:10   0.00   56.5    57   26.4   326    43.4   963.7    0.00 
 293   19:20   0.00   56.6    56   25.7   328    40.6   963.7    0.00 
 293   19:30   0.00   56.4    57   27.9   329    42.2   963.7    0.00 
 293   19:40   0.00   56.2    58   27.7   328    42.2   963.7    0.00 
 293   19:50   0.00   55.9    60   26.8   331    44.7   963.6    0.00 
 293   20:00   0.00   56.0    60   27.9   324    44.6   963.7    0.00 
 293   20:10   0.00   56.0    59   23.3   330    36.4   963.9    0.00 
 293   20:20   0.00   56.1    59   20.4   345    37.0   964.0    0.00 
 293   20:30   0.00   56.2    58   21.0   355    32.9   964.1    0.00 
 293   20:40   0.00   56.0    59   23.1   346    40.0   964.3    0.00 
 293   20:50   0.00   56.1    59   21.7   350    34.4   964.5    0.00 
 293   21:00   0.00   55.8    61   23.2   354    40.5   964.4    0.00 
 293   21:10   0.00   55.6    62   23.4   354    35.9   964.4    0.00 
 293   21:20   0.00   55.8    61   23.6   351    37.1   964.4    0.00 
 293   21:30   0.00   55.7    61   21.9   349    33.6   964.7    0.00 
 293   21:40   0.00   55.8    59   20.0   354    31.4   964.8    0.00 
 293   21:50   0.00   55.8    58   20.1   360    31.6   964.9    0.00 
 293   22:00   0.00   55.9    58   21.0     1    32.3   964.9    0.00 
 293   22:10   0.00   55.8    59   23.2   358    32.4   964.8    0.00 
 293   22:20   0.00   55.6    59   21.1     5    31.3   964.9    0.00 
 293   22:30   0.00   55.5    59   19.9    16    29.1   965.0    0.00 
 293   22:40   0.00   55.5    58   20.1     6    32.9   965.0    0.00 
 293   22:50   0.00   55.6    58   17.1     2    25.3   965.2    0.00 
 293   23:00   0.00   55.3    60   18.6     4    27.0   965.2    0.00 
 293   23:10   0.00   55.2    60   19.4     5    27.1   965.1    0.00 
 293   23:20   0.00   55.7    57   20.9    11    30.0   965.0    0.00 
 293   23:30   0.00   56.0    54   21.4    12    28.4   965.0    0.00 
 293   23:40   0.00   56.1    53   20.7    10    32.7   965.0    0.00 
 293   23:50   0.00   56.0    54   17.6     4    26.9   965.3    0.00 
 294    0:00   0.00   56.0    53   16.4     2    24.2   965.4    0.00 
 294    0:10   0.00   55.8    54   16.5     6    23.5   965.5    0.00 
 294    0:20   0.00   55.7    55   16.5   359    26.3   965.6    0.00 
 294    0:30   0.00   55.7    55   18.1     8    28.4   965.3    0.00 
 294    0:40   0.00   55.7    54   15.6     7    26.2   965.6    0.00 
 294    0:50   0.00   55.9    53   17.6   360    26.8   965.6    0.00 
 294    1:00   0.00   55.9    53   16.1     4    23.1   965.5    0.00 
 294    1:10   0.00   55.9    52   18.6     5    28.9   965.5    0.00 
 294    1:20   0.00   55.8    53   18.3   359    27.2   965.5    0.00 
 294    1:30   0.00   56.0    51   17.8   356    27.8   965.5    0.00 
 294    1:40   0.00   56.1    50   17.7    11    27.2   965.4    0.00 
 294    1:50   0.00   56.0    50   20.4     6    29.8   965.3    0.00 
 294    2:00   0.00   56.2    50   20.9     8    31.9   965.2    0.00 
 294    2:10   0.00   55.7    51   18.9    10    28.4   965.3    0.00 
 294    2:20   0.00   55.7    51   16.9    12    24.8   965.3    0.00 
 294    2:30   0.00   55.5    52   16.5     4    23.3   965.4    0.00 
 294    2:40   0.00   55.5    51   17.7     3    26.6   965.3    0.00 
 294    2:50   0.00   55.5    50   19.5    14    27.4   965.1    0.00 
 294    3:00   0.00   55.3    52   20.4    11    30.2   965.0    0.00 
 294    3:10   0.00   55.2    52   18.2    17    27.6   965.2    0.00 
 294    3:20   0.00   55.3    52   19.4     9    27.7   965.2    0.00 
 294    3:30   0.00   55.1    54   17.3     3    29.1   965.4    0.00 
 294    3:40   0.00   55.2    52   16.6   359    24.9   965.6    0.00 
 294    3:50   0.00   55.1    53   15.0     3    23.1   965.7    0.00 
 294    4:00   0.00   55.0    52   13.0   360    19.1   965.8    0.00 
 294    4:10   0.00   55.2    51   13.7    14    17.5   965.9    0.00 
 294    4:20   0.00   54.7    52   15.2    18    19.3   965.9    0.00 
 294    4:30   0.00   54.2    54   17.5    20    20.8   965.9    0.00 
 294    4:40   0.00   54.5    51   17.8    10    22.2   965.8    0.00 
 294    4:50   0.00   54.8    51   14.9    15    19.7   966.0    0.00 
 294    5:00   0.00   54.5    52   12.3    14    15.4   966.2    0.00 
 294    5:10   0.00   54.1    52   11.2    17    14.2   966.5    0.00 
 294    5:20   0.00   54.6    50   10.6   359    14.0   966.7    0.00 
 294    5:30   0.00   55.9    46    9.9   351    12.7   966.8    0.00 
 294    5:40   0.00   55.7    47    8.0     8    11.2   967.0    0.00 
 294    5:50   0.00   54.9    49    9.7     6    12.1   966.9    0.00 
 294    6:00   0.00   55.4    47    9.2   359    12.1   966.8    0.00 
 294    6:10   0.00   55.8    46    9.7     9    12.5   966.8    0.00 
 294    6:20   0.00   55.1    48    8.9    15    10.4   966.8    0.00 
 294    6:30   0.02   54.5    51    7.1    41     8.7   967.0    0.00 
 294    6:40   0.04   55.5    47    5.9    19     7.5   967.0    0.00 
 294    6:50   0.08   55.9    48    7.3    26     9.3   967.2    0.00 
 294    7:00   0.10   55.3    52    7.4    29     9.6   967.4    0.00 
 294    7:10   0.13   55.7    52    8.1    16     9.4   967.4    0.00 
 294    7:20   0.16   56.6    48    6.1    11     7.9   967.6    0.00 
 294    7:30   0.19   58.5    42    4.8    10     6.2   967.6    0.00 
 294    7:40   0.23   59.5    41    3.9    27     6.1   967.7    0.00 
 294    7:50   0.26   59.8    39    1.7    76     4.4   967.9    0.00 
 294    8:00   0.29   60.8    39    1.7    59     3.6   968.2    0.00 
 294    8:10   0.32   61.6    37    2.0    78     3.1   968.3    0.00 
 294    8:20   0.35   62.0    38    1.9   187     3.7   968.3    0.00 
 294    8:30   0.38   63.5    33    1.9   158     5.6   968.3    0.00 
 294    8:40   0.41   65.8    31    2.7   131     6.1   968.3    0.00 
 294    8:50   0.44   66.1    35    2.5    67     4.0   968.4    0.00 
 294    9:00   0.47   66.2    38    2.1    57     3.9   968.4    0.00 
 294    9:10   0.49   66.3    41    3.1    53     4.7   968.5    0.00 
 294    9:20   0.52   67.5    34    1.6   148     6.6   968.5    0.00 
 294    9:30   0.54   69.2    36    2.2    69     4.5   968.6    0.00 
 294    9:40   0.56   69.1    37    2.8    52     4.7   968.7    0.00 

Return to Valley Peak, Santa Cruz Island Reserve graphs page.


Western Regional Climate Center,wrcc@dri.edu